^^
Saratoga-Weather Station Historical Data
Daily Summary for February 23, 2021 Units:  Both    English   Metric
Daily Weekly Monthly Yearly Custom
  High: Low: Average:
Temperature: 72.9 °F /  22.7 °C 45.1 °F /  7.3 °C 58.1 °F /  14.5 °C
Dew Point: 56.7 °F /  13.7 °C 44.1 °F /  6.7 °C 50.4 °F /  10.2 °C
Humidity: 97% 52% 78%
Wind Speed: 11mph /  17.7km/h - 1.7mph /  2.7km/h
Wind Gust: 12mph /  19.3km/h - -
Wind- - SW
Pressure: 30.3 in /  1024.4 hPa 30.1 in /  1017.6 hPa -
Precipitation: 0 in /  0.0 mm    
Historical Graphs
 
 
Tabular Data for February 23, 2021
Time Temperature Dew Point Pressure Wind Wind Speed Wind Gust Humidity Rainfall Rate (Hourly) solar
00:02 51.6 °F /  10.9 °C 49.1 °F /  9.5 °C 30.3in /  1024.4hPa Calm     91% 0in /  0.0mm 0 W/m2
00:07 51.4 °F /  10.8 °C 48.9 °F /  9.4 °C 30.3in /  1024.4hPa SE 2mph /  3.2km/h 2mph /  3.2km/h 91% 0in /  0.0mm 0 W/m2
00:12 51.4 °F /  10.8 °C 49.3 °F /  9.6 °C 30.2in /  1024.0hPa Calm   1mph /  1.6km/h 92% 0in /  0.0mm 0 W/m2
00:17 51.4 °F /  10.8 °C 49.3 °F /  9.6 °C 30.3in /  1024.4hPa Calm     92% 0in /  0.0mm 0 W/m2
00:22 51.4 °F /  10.8 °C 49.3 °F /  9.6 °C 30.3in /  1024.4hPa Calm   1mph /  1.6km/h 92% 0in /  0.0mm 0 W/m2
00:38 51.1 °F /  10.6 °C 48.9 °F /  9.4 °C 30.3in /  1024.4hPa Calm     92% 0in /  0.0mm 0 W/m2
00:43 51.1 °F /  10.6 °C 48.9 °F /  9.4 °C 30.3in /  1024.4hPa Calm     92% 0in /  0.0mm 0 W/m2
00:48 50.7 °F /  10.4 °C 48.6 °F /  9.2 °C 30.3in /  1024.4hPa Calm     92% 0in /  0.0mm 0 W/m2
00:53 50.7 °F /  10.4 °C 48.7 °F /  9.3 °C 30.3in /  1024.4hPa Calm     93% 0in /  0.0mm 0 W/m2
00:58 50.5 °F /  10.3 °C 48.6 °F /  9.2 °C 30.3in /  1024.4hPa Calm     93% 0in /  0.0mm 0 W/m2
01:03 50.5 °F /  10.3 °C 48.6 °F /  9.2 °C 30.3in /  1024.4hPa Calm     93% 0in /  0.0mm 0 W/m2
01:08 50.4 °F /  10.2 °C 48.4 °F /  9.1 °C 30.2in /  1024.0hPa Calm     93% 0in /  0.0mm 0 W/m2
01:25 50.2 °F /  10.1 °C 48.2 °F /  9 °C 30.2in /  1024.0hPa Calm     93% 0in /  0.0mm 0 W/m2
01:30 50.2 °F /  10.1 °C 48.6 °F /  9.2 °C 30.2in /  1024.0hPa Calm     94% 0in /  0.0mm 0 W/m2
01:35 50 °F /  10 °C 48 °F /  8.9 °C 30.2in /  1024.0hPa Calm     93% 0in /  0.0mm 0 W/m2
01:40 50 °F /  10 °C 48.4 °F /  9.1 °C 30.2in /  1024.0hPa Calm     94% 0in /  0.0mm 0 W/m2
01:45 49.8 °F /  9.9 °C 48.2 °F /  9 °C 30.2in /  1024.0hPa Calm     94% 0in /  0.0mm 0 W/m2
01:50 49.8 °F /  9.9 °C 48.2 °F /  9 °C 30.2in /  1024.0hPa Calm     94% 0in /  0.0mm 0 W/m2
01:55 49.8 °F /  9.9 °C 48.2 °F /  9 °C 30.2in /  1024.0hPa Calm     94% 0in /  0.0mm 0 W/m2
02:00 49.8 °F /  9.9 °C 48.2 °F /  9 °C 30.2in /  1024.0hPa Calm     94% 0in /  0.0mm 0 W/m2
02:05 49.6 °F /  9.8 °C 48 °F /  8.9 °C 30.2in /  1024.0hPa Calm     94% 0in /  0.0mm 0 W/m2
02:10 49.6 °F /  9.8 °C 48 °F /  8.9 °C 30.2in /  1023.7hPa Calm     94% 0in /  0.0mm 0 W/m2
02:15 49.6 °F /  9.8 °C 48 °F /  8.9 °C 30.2in /  1023.7hPa Calm     94% 0in /  0.0mm 0 W/m2
02:20 49.5 °F /  9.7 °C 47.8 °F /  8.8 °C 30.2in /  1023.7hPa Calm     94% 0in /  0.0mm 0 W/m2
02:25 49.3 °F /  9.6 °C 47.7 °F /  8.7 °C 30.2in /  1023.7hPa Calm     94% 0in /  0.0mm 0 W/m2
02:30 49.1 °F /  9.5 °C 47.5 °F /  8.6 °C 30.2in /  1023.7hPa Calm     94% 0in /  0.0mm 0 W/m2
02:35 48.9 °F /  9.4 °C 47.3 °F /  8.5 °C 30.2in /  1023.7hPa Calm     94% 0in /  0.0mm 0 W/m2
02:40 48.9 °F /  9.4 °C 47.3 °F /  8.5 °C 30.2in /  1023.7hPa Calm     94% 0in /  0.0mm 0 W/m2
02:45 48.7 °F /  9.3 °C 47.1 °F /  8.4 °C 30.2in /  1023.4hPa Calm     94% 0in /  0.0mm 0 W/m2
03:04 48.6 °F /  9.2 °C 46.9 °F /  8.3 °C 30.2in /  1023.4hPa Calm     94% 0in /  0.0mm 0 W/m2
03:09 48.6 °F /  9.2 °C 46.9 °F /  8.3 °C 30.2in /  1023.4hPa Calm     94% 0in /  0.0mm 0 W/m2
03:14 48.4 °F /  9.1 °C 46.8 °F /  8.2 °C 30.2in /  1023.4hPa Calm     94% 0in /  0.0mm 0 W/m2
03:19 48.4 °F /  9.1 °C 46.8 °F /  8.2 °C 30.2in /  1023.4hPa Calm     94% 0in /  0.0mm 0 W/m2
03:24 48 °F /  8.9 °C 46.4 °F /  8 °C 30.2in /  1023.0hPa Calm     94% 0in /  0.0mm 0 W/m2
03:29 48 °F /  8.9 °C 46.4 °F /  8 °C 30.2in /  1023.0hPa Calm     94% 0in /  0.0mm 0 W/m2
03:34 47.8 °F /  8.8 °C 46.4 °F /  8 °C 30.2in /  1022.7hPa Calm     95% 0in /  0.0mm 0 W/m2
03:39 48 °F /  8.9 °C 46.6 °F /  8.1 °C 30.2in /  1022.7hPa Calm     95% 0in /  0.0mm 0 W/m2
03:44 48 °F /  8.9 °C 46.6 °F /  8.1 °C 30.2in /  1022.7hPa Calm     95% 0in /  0.0mm 0 W/m2
03:49 48 °F /  8.9 °C 46.6 °F /  8.1 °C 30.2in /  1022.7hPa Calm     95% 0in /  0.0mm 0 W/m2
03:54 47.8 °F /  8.8 °C 46.4 °F /  8 °C 30.2in /  1022.7hPa Calm     95% 0in /  0.0mm 0 W/m2
03:59 47.8 °F /  8.8 °C 46.4 °F /  8 °C 30.2in /  1022.7hPa Calm     95% 0in /  0.0mm 0 W/m2
04:04 47.8 °F /  8.8 °C 46.4 °F /  8 °C 30.2in /  1022.7hPa Calm     95% 0in /  0.0mm 0 W/m2
04:09 47.8 °F /  8.8 °C 46.4 °F /  8 °C 30.2in /  1022.4hPa Calm     95% 0in /  0.0mm 0 W/m2
04:14 47.7 °F /  8.7 °C 46.2 °F /  7.9 °C 30.2in /  1022.4hPa Calm     95% 0in /  0.0mm 0 W/m2
04:19 47.7 °F /  8.7 °C 46.2 °F /  7.9 °C 30.2in /  1022.4hPa Calm     95% 0in /  0.0mm 0 W/m2
04:24 47.8 °F /  8.8 °C 46.4 °F /  8 °C 30.2in /  1022.4hPa Calm     95% 0in /  0.0mm 0 W/m2
04:29 47.8 °F /  8.8 °C 46.4 °F /  8 °C 30.2in /  1022.4hPa Calm     95% 0in /  0.0mm 0 W/m2
04:34 47.8 °F /  8.8 °C 46.4 °F /  8 °C 30.2in /  1022.4hPa Calm     95% 0in /  0.0mm 0 W/m2
04:39 47.8 °F /  8.8 °C 46.4 °F /  8 °C 30.2in /  1022.4hPa Calm     95% 0in /  0.0mm 0 W/m2
04:44 47.8 °F /  8.8 °C 46.4 °F /  8 °C 30.2in /  1022.0hPa Calm     95% 0in /  0.0mm 0 W/m2
04:49 47.8 °F /  8.8 °C 46.8 °F /  8.2 °C 30.2in /  1022.0hPa Calm     96% 0in /  0.0mm 0 W/m2
04:54 47.8 °F /  8.8 °C 46.8 °F /  8.2 °C 30.2in /  1022.0hPa Calm     96% 0in /  0.0mm 0 W/m2
04:59 48 °F /  8.9 °C 46.9 °F /  8.3 °C 30.2in /  1022.0hPa Calm     96% 0in /  0.0mm 0 W/m2
05:04 48 °F /  8.9 °C 46.9 °F /  8.3 °C 30.2in /  1022.0hPa Calm     96% 0in /  0.0mm 0 W/m2
05:10 47.8 °F /  8.8 °C 46.8 °F /  8.2 °C 30.2in /  1022.0hPa Calm     96% 0in /  0.0mm 0 W/m2
05:15 47.8 °F /  8.8 °C 46.4 °F /  8 °C 30.2in /  1021.7hPa Calm     95% 0in /  0.0mm 0 W/m2
05:20 47.7 °F /  8.7 °C 46.2 °F /  7.9 °C 30.2in /  1021.7hPa Calm     95% 0in /  0.0mm 0 W/m2
05:25 47.5 °F /  8.6 °C 46 °F /  7.8 °C 30.2in /  1021.7hPa Calm     95% 0in /  0.0mm 0 W/m2
05:30 47.3 °F /  8.5 °C 45.9 °F /  7.7 °C 30.2in /  1021.7hPa Calm     95% 0in /  0.0mm 0 W/m2
05:35 47.1 °F /  8.4 °C 45.7 °F /  7.6 °C 30.2in /  1021.3hPa Calm     95% 0in /  0.0mm 0 W/m2
05:40 46.9 °F /  8.3 °C 45.5 °F /  7.5 °C 30.2in /  1021.3hPa Calm     95% 0in /  0.0mm 0 W/m2
05:45 46.9 °F /  8.3 °C 45.5 °F /  7.5 °C 30.2in /  1021.3hPa Calm     95% 0in /  0.0mm 0 W/m2
05:50 46.8 °F /  8.2 °C 45.3 °F /  7.4 °C 30.2in /  1021.3hPa Calm     95% 0in /  0.0mm 0 W/m2
05:55 46.6 °F /  8.1 °C 45.1 °F /  7.3 °C 30.2in /  1021.3hPa Calm     95% 0in /  0.0mm 0 W/m2
06:00 46.6 °F /  8.1 °C 45.1 °F /  7.3 °C 30.2in /  1021.3hPa Calm     95% 0in /  0.0mm 0 W/m2
06:05 46.4 °F /  8 °C 45 °F /  7.2 °C 30.2in /  1021.3hPa Calm     95% 0in /  0.0mm 0 W/m2
06:10 46.2 °F /  7.9 °C 44.8 °F /  7.1 °C 30.2in /  1021.3hPa Calm     95% 0in /  0.0mm 0 W/m2
06:15 46 °F /  7.8 °C 44.6 °F /  7 °C 30.2in /  1021.3hPa Calm     95% 0in /  0.0mm 0 W/m2
06:20 46 °F /  7.8 °C 44.6 °F /  7 °C 30.2in /  1021.3hPa Calm     95% 0in /  0.0mm 0 W/m2
06:25 46 °F /  7.8 °C 45 °F /  7.2 °C 30.2in /  1021.3hPa Calm     96% 0in /  0.0mm 0 W/m2
06:30 46 °F /  7.8 °C 45 °F /  7.2 °C 30.2in /  1021.0hPa Calm     96% 0in /  0.0mm 0 W/m2
06:35 46.2 °F /  7.9 °C 45.1 °F /  7.3 °C 30.2in /  1021.0hPa Calm     96% 0in /  0.0mm 0 W/m2
06:40 46.2 °F /  7.9 °C 45.1 °F /  7.3 °C 30.2in /  1021.0hPa Calm     96% 0in /  0.0mm 0 W/m2
06:45 46.2 °F /  7.9 °C 45.1 °F /  7.3 °C 30.2in /  1021.0hPa Calm     96% 0in /  0.0mm 0 W/m2
06:50 46 °F /  7.8 °C 45 °F /  7.2 °C 30.2in /  1021.0hPa Calm     96% 0in /  0.0mm 0 W/m2
06:55 46 °F /  7.8 °C 45 °F /  7.2 °C 30.2in /  1021.0hPa Calm     96% 0in /  0.0mm 0 W/m2
07:00 45.9 °F /  7.7 °C 44.8 °F /  7.1 °C 30.2in /  1021.0hPa Calm     96% 0in /  0.0mm 0 W/m2
07:05 45.7 °F /  7.6 °C 44.6 °F /  7 °C 30.2in /  1021.0hPa Calm     96% 0in /  0.0mm 0 W/m2
07:10 45.7 °F /  7.6 °C 44.6 °F /  7 °C 30.2in /  1021.0hPa Calm     96% 0in /  0.0mm 0 W/m2
07:15 45.5 °F /  7.5 °C 44.4 °F /  6.9 °C 30.2in /  1021.0hPa Calm     96% 0in /  0.0mm 0 W/m2
07:20 45.5 °F /  7.5 °C 44.4 °F /  6.9 °C 30.2in /  1021.0hPa Calm     96% 0in /  0.0mm 0 W/m2
07:26 45.3 °F /  7.4 °C 44.2 °F /  6.8 °C 30.2in /  1021.3hPa Calm     96% 0in /  0.0mm 5 W/m2
07:31 45.3 °F /  7.4 °C 44.2 °F /  6.8 °C 30.2in /  1021.3hPa Calm     96% 0in /  0.0mm 7 W/m2
07:36 45.1 °F /  7.3 °C 44.1 °F /  6.7 °C 30.2in /  1021.3hPa Calm     96% 0in /  0.0mm 9 W/m2
07:41 45.3 °F /  7.4 °C 44.2 °F /  6.8 °C 30.2in /  1021.3hPa Calm   1mph /  1.6km/h 96% 0in /  0.0mm 11 W/m2
07:46 45.3 °F /  7.4 °C 44.2 °F /  6.8 °C 30.2in /  1021.3hPa Calm     96% 0in /  0.0mm 12 W/m2
07:51 45.5 °F /  7.5 °C 44.4 °F /  6.9 °C 30.2in /  1021.3hPa Calm     96% 0in /  0.0mm 14 W/m2
07:56 45.5 °F /  7.5 °C 44.4 °F /  6.9 °C 30.2in /  1021.3hPa Calm     96% 0in /  0.0mm 16 W/m2
08:01 45.7 °F /  7.6 °C 44.6 °F /  7 °C 30.2in /  1021.3hPa Calm     96% 0in /  0.0mm 16 W/m2
08:06 45.7 °F /  7.6 °C 44.6 °F /  7 °C 30.2in /  1021.3hPa Calm     96% 0in /  0.0mm 18 W/m2
08:11 45.9 °F /  7.7 °C 44.8 °F /  7.1 °C 30.2in /  1021.3hPa Calm     96% 0in /  0.0mm 19 W/m2
08:16 45.9 °F /  7.7 °C 44.8 °F /  7.1 °C 30.2in /  1021.3hPa Calm     96% 0in /  0.0mm 21 W/m2
08:21 46 °F /  7.8 °C 45 °F /  7.2 °C 30.2in /  1021.3hPa Calm     96% 0in /  0.0mm 23 W/m2
08:26 46 °F /  7.8 °C 45 °F /  7.2 °C 30.2in /  1021.3hPa Calm     96% 0in /  0.0mm 25 W/m2
08:31 46.4 °F /  8 °C 45.3 °F /  7.4 °C 30.2in /  1021.7hPa Calm     96% 0in /  0.0mm 26 W/m2
08:36 46.6 °F /  8.1 °C 45.5 °F /  7.5 °C 30.2in /  1021.7hPa Calm     96% 0in /  0.0mm 26 W/m2
08:41 46.8 °F /  8.2 °C 45.7 °F /  7.6 °C 30.2in /  1021.7hPa Calm     96% 0in /  0.0mm 28 W/m2
08:46 46.9 °F /  8.3 °C 46.2 °F /  7.9 °C 30.2in /  1021.3hPa Calm     97% 0in /  0.0mm 28 W/m2
08:51 47.1 °F /  8.4 °C 46.4 °F /  8 °C 30.2in /  1021.7hPa Calm     97% 0in /  0.0mm 30 W/m2
08:56 47.5 °F /  8.6 °C 46.4 °F /  8 °C 30.2in /  1021.7hPa Calm     96% 0in /  0.0mm 28 W/m2
09:01 47.7 °F /  8.7 °C 46.9 °F /  8.3 °C 30.2in /  1021.7hPa Calm     97% 0in /  0.0mm 30 W/m2
09:11 48.2 °F /  9 °C 47.3 °F /  8.5 °C 30.2in /  1021.7hPa NE 0.9mph /  1.4km/h 2mph /  3.2km/h 97% 0in /  0.0mm 202 W/m2
09:16 48.7 °F /  9.3 °C 47.8 °F /  8.8 °C 30.2in /  1021.7hPa NE 0.9mph /  1.4km/h 2mph /  3.2km/h 97% 0in /  0.0mm 218 W/m2
09:21 48.9 °F /  9.4 °C 48 °F /  8.9 °C 30.2in /  1021.7hPa Calm   1mph /  1.6km/h 97% 0in /  0.0mm 229 W/m2
09:26 49.5 °F /  9.7 °C 48.6 °F /  9.2 °C 30.2in /  1021.7hPa Calm     97% 0in /  0.0mm 241 W/m2
09:31 49.8 °F /  9.9 °C 48.9 °F /  9.4 °C 30.2in /  1021.7hPa Calm     97% 0in /  0.0mm 253 W/m2
09:36 50.5 °F /  10.3 °C 49.6 °F /  9.8 °C 30.2in /  1021.7hPa Calm     97% 0in /  0.0mm 264 W/m2
09:41 51.4 °F /  10.8 °C 50.5 °F /  10.3 °C 30.2in /  1021.7hPa Calm     97% 0in /  0.0mm 276 W/m2
09:46 51.8 °F /  11 °C 50.9 °F /  10.5 °C 30.2in /  1021.7hPa ENE 0.9mph /  1.4km/h 3mph /  4.8km/h 97% 0in /  0.0mm 292 W/m2
09:51 52.2 °F /  11.2 °C 51.3 °F /  10.7 °C 30.2in /  1021.7hPa East 0.9mph /  1.4km/h 3mph /  4.8km/h 97% 0in /  0.0mm 306 W/m2
09:56 52.5 °F /  11.4 °C 51.4 °F /  10.8 °C 30.2in /  1021.7hPa ENE 0.9mph /  1.4km/h 2mph /  3.2km/h 96% 0in /  0.0mm 320 W/m2
10:02 53.2 °F /  11.8 °C 51.8 °F /  11 °C 30.2in /  1021.7hPa ENE 2mph /  3.2km/h 2mph /  3.2km/h 95% 0in /  0.0mm 330 W/m2
10:07 54.1 °F /  12.3 °C 52.2 °F /  11.2 °C 30.2in /  1021.3hPa ENE 2mph /  3.2km/h 2mph /  3.2km/h 93% 0in /  0.0mm 345 W/m2
10:12 54.7 °F /  12.6 °C 52.2 °F /  11.2 °C 30.2in /  1021.3hPa ESE 0.9mph /  1.4km/h 3mph /  4.8km/h 91% 0in /  0.0mm 357 W/m2
10:17 55 °F /  12.8 °C 51.8 °F /  11 °C 30.2in /  1021.3hPa Calm   3mph /  4.8km/h 89% 0in /  0.0mm 373 W/m2
10:22 55.8 °F /  13.2 °C 52.3 °F /  11.3 °C 30.2in /  1021.3hPa NE 2.9mph /  4.7km/h 3mph /  4.8km/h 88% 0in /  0.0mm 388 W/m2
10:27 56.1 °F /  13.4 °C 52.3 °F /  11.3 °C 30.2in /  1021.3hPa East 0.9mph /  1.4km/h 1mph /  1.6km/h 87% 0in /  0.0mm 399 W/m2
10:32 56.7 °F /  13.7 °C 52.2 °F /  11.2 °C 30.2in /  1021.3hPa ESE 0.9mph /  1.4km/h 2mph /  3.2km/h 85% 0in /  0.0mm 415 W/m2
10:37 57 °F /  13.9 °C 52.2 °F /  11.2 °C 30.2in /  1021.0hPa SE 2mph /  3.2km/h 3mph /  4.8km/h 84% 0in /  0.0mm 429 W/m2
10:42 57.6 °F /  14.2 °C 52.7 °F /  11.5 °C 30.2in /  1021.0hPa Calm   2mph /  3.2km/h 84% 0in /  0.0mm 441 W/m2
10:47 57.7 °F /  14.3 °C 52.3 °F /  11.3 °C 30.2in /  1021.0hPa East 2mph /  3.2km/h 2mph /  3.2km/h 82% 0in /  0.0mm 452 W/m2
10:52 58.1 °F /  14.5 °C 52.7 °F /  11.5 °C 30.2in /  1021.0hPa Calm   4mph /  6.4km/h 82% 0in /  0.0mm 462 W/m2
10:57 58.5 °F /  14.7 °C 52.7 °F /  11.5 °C 30.2in /  1021.0hPa ENE 0.9mph /  1.4km/h 2mph /  3.2km/h 81% 0in /  0.0mm 475 W/m2
11:02 58.6 °F /  14.8 °C 52.9 °F /  11.6 °C 30.2in /  1021.0hPa NE 2mph /  3.2km/h 4mph /  6.4km/h 81% 0in /  0.0mm 480 W/m2
11:07 59 °F /  15 °C 52.9 °F /  11.6 °C 30.2in /  1021.0hPa ENE 2.9mph /  4.7km/h 4mph /  6.4km/h 80% 0in /  0.0mm 487 W/m2
11:12 59.4 °F /  15.2 °C 53.2 °F /  11.8 °C 30.2in /  1021.0hPa Calm   1mph /  1.6km/h 80% 0in /  0.0mm 499 W/m2
11:17 59.9 °F /  15.5 °C 53.8 °F /  12.1 °C 30.2in /  1021.0hPa East 0.9mph /  1.4km/h 3mph /  4.8km/h 80% 0in /  0.0mm 512 W/m2
11:22 60.4 °F /  15.8 °C 53.6 °F /  12 °C 30.2in /  1021.0hPa NE 2.9mph /  4.7km/h 3mph /  4.8km/h 78% 0in /  0.0mm 513 W/m2
11:27 60.4 °F /  15.8 °C 53.2 °F /  11.8 °C 30.2in /  1021.0hPa Calm   2mph /  3.2km/h 77% 0in /  0.0mm 527 W/m2
11:32 61 °F /  16.1 °C 54.1 °F /  12.3 °C 30.2in /  1021.0hPa ENE 2mph /  3.2km/h 2mph /  3.2km/h 78% 0in /  0.0mm 534 W/m2
11:37 61.5 °F /  16.4 °C 54.3 °F /  12.4 °C 30.2in /  1021.0hPa ENE 0.9mph /  1.4km/h 4mph /  6.4km/h 77% 0in /  0.0mm 547 W/m2
11:42 61.9 °F /  16.6 °C 54.3 °F /  12.4 °C 30.2in /  1021.0hPa East 0.9mph /  1.4km/h 3mph /  4.8km/h 76% 0in /  0.0mm 548 W/m2
11:47 62.4 °F /  16.9 °C 55 °F /  12.8 °C 30.2in /  1021.0hPa East 0.9mph /  1.4km/h 1mph /  1.6km/h 77% 0in /  0.0mm 555 W/m2
11:52 63.3 °F /  17.4 °C 55.2 °F /  12.9 °C 30.2in /  1021.0hPa ESE 0.9mph /  1.4km/h 4mph /  6.4km/h 75% 0in /  0.0mm 568 W/m2
11:57 64 °F /  17.8 °C 55.2 °F /  12.9 °C 30.1in /  1020.7hPa East 4mph /  6.4km/h 4mph /  6.4km/h 73% 0in /  0.0mm 573 W/m2
12:02 64.9 °F /  18.3 °C 56.1 °F /  13.4 °C 30.1in /  1020.7hPa ENE 0.9mph /  1.4km/h 3mph /  4.8km/h 73% 0in /  0.0mm 584 W/m2
12:07 65.7 °F /  18.7 °C 55.9 °F /  13.3 °C 30.1in /  1020.7hPa East 4mph /  6.4km/h 4mph /  6.4km/h 71% 0in /  0.0mm 592 W/m2
12:12 66.4 °F /  19.1 °C 56.7 °F /  13.7 °C 30.1in /  1020.7hPa ESE 2mph /  3.2km/h 3mph /  4.8km/h 71% 0in /  0.0mm 598 W/m2
12:17 66.9 °F /  19.4 °C 55.9 °F /  13.3 °C 30.1in /  1020.3hPa East 2mph /  3.2km/h 3mph /  4.8km/h 68% 0in /  0.0mm 608 W/m2
12:22 67.6 °F /  19.8 °C 56.3 °F /  13.5 °C 30.1in /  1020.3hPa East 2.9mph /  4.7km/h 3mph /  4.8km/h 67% 0in /  0.0mm 610 W/m2
12:27 67.8 °F /  19.9 °C 55.2 °F /  12.9 °C 30.1in /  1020.3hPa WSW 2mph /  3.2km/h 4mph /  6.4km/h 64% 0in /  0.0mm 624 W/m2
12:32 68.2 °F /  20.1 °C 55 °F /  12.8 °C 30.1in /  1020.3hPa West 0.9mph /  1.4km/h 3mph /  4.8km/h 63% 0in /  0.0mm 633 W/m2
12:37 68.2 °F /  20.1 °C 54.1 °F /  12.3 °C 30.1in /  1020.0hPa NW 2.9mph /  4.7km/h 4mph /  6.4km/h 61% 0in /  0.0mm 636 W/m2
12:42 68.2 °F /  20.1 °C 55 °F /  12.8 °C 30.1in /  1020.0hPa Calm   2mph /  3.2km/h 63% 0in /  0.0mm 643 W/m2
12:47 68.2 °F /  20.1 °C 54.1 °F /  12.3 °C 30.1in /  1020.0hPa WNW 4mph /  6.4km/h 4mph /  6.4km/h 61% 0in /  0.0mm 643 W/m2
12:52 68.2 °F /  20.1 °C 53.8 °F /  12.1 °C 30.1in /  1020.0hPa NW 2mph /  3.2km/h 9mph /  14.5km/h 60% 0in /  0.0mm 645 W/m2
12:57 68.4 °F /  20.2 °C 54.3 °F /  12.4 °C 30.1in /  1020.0hPa WNW 0.9mph /  1.4km/h 6mph /  9.7km/h 61% 0in /  0.0mm 647 W/m2
13:02 68.5 °F /  20.3 °C 54.5 °F /  12.5 °C 30.1in /  1019.6hPa NW 2mph /  3.2km/h 9mph /  14.5km/h 61% 0in /  0.0mm 650 W/m2
13:07 68.5 °F /  20.3 °C 55 °F /  12.8 °C 30.1in /  1019.6hPa WSW 2mph /  3.2km/h 4mph /  6.4km/h 62% 0in /  0.0mm 656 W/m2
13:12 68.7 °F /  20.4 °C 54.3 °F /  12.4 °C 30.1in /  1019.6hPa WSW 2.9mph /  4.7km/h 7mph /  11.3km/h 60% 0in /  0.0mm 659 W/m2
13:17 69.1 °F /  20.6 °C 54.7 °F /  12.6 °C 30.1in /  1019.6hPa WNW 2mph /  3.2km/h 4mph /  6.4km/h 60% 0in /  0.0mm 661 W/m2
13:22 69.1 °F /  20.6 °C 54.7 °F /  12.6 °C 30.1in /  1019.6hPa West 4mph /  6.4km/h 4mph /  6.4km/h 60% 0in /  0.0mm 659 W/m2
13:27 69.1 °F /  20.6 °C 54.1 °F /  12.3 °C 30.1in /  1019.3hPa South 0.9mph /  1.4km/h 7mph /  11.3km/h 59% 0in /  0.0mm 663 W/m2
13:32 69.3 °F /  20.7 °C 54.3 °F /  12.4 °C 30.1in /  1019.3hPa West 0.9mph /  1.4km/h 4mph /  6.4km/h 59% 0in /  0.0mm 663 W/m2
13:37 69.4 °F /  20.8 °C 54 °F /  12.2 °C 30.1in /  1019.3hPa WNW 2.9mph /  4.7km/h 9mph /  14.5km/h 58% 0in /  0.0mm 663 W/m2
13:43 69.3 °F /  20.7 °C 53.8 °F /  12.1 °C 30.1in /  1019.3hPa NW 0.9mph /  1.4km/h 4mph /  6.4km/h 58% 0in /  0.0mm 663 W/m2
13:48 69.4 °F /  20.8 °C 53.6 °F /  12 °C 30.1in /  1019.3hPa WNW 6.9mph /  11.1km/h 9mph /  14.5km/h 57% 0in /  0.0mm 661 W/m2
13:53 69.6 °F /  20.9 °C 53.8 °F /  12.1 °C 30.1in /  1019.3hPa West 2.9mph /  4.7km/h 6mph /  9.7km/h 57% 0in /  0.0mm 663 W/m2
13:58 69.8 °F /  21 °C 53.4 °F /  11.9 °C 30.1in /  1019.3hPa WNW 2.9mph /  4.7km/h 7mph /  11.3km/h 56% 0in /  0.0mm 656 W/m2
14:03 70 °F /  21.1 °C 54 °F /  12.2 °C 30.1in /  1019.3hPa WSW 4mph /  6.4km/h 4mph /  6.4km/h 57% 0in /  0.0mm 656 W/m2
14:08 70.3 °F /  21.3 °C 53.4 °F /  11.9 °C 30.1in /  1019.3hPa WNW 2.9mph /  4.7km/h 7mph /  11.3km/h 55% 0in /  0.0mm 657 W/m2
14:13 70.3 °F /  21.3 °C 54 °F /  12.2 °C 30.1in /  1019.3hPa West 4mph /  6.4km/h 4mph /  6.4km/h 56% 0in /  0.0mm 652 W/m2
14:18 70.5 °F /  21.4 °C 55 °F /  12.8 °C 30.1in /  1019.3hPa Calm   3mph /  4.8km/h 58% 0in /  0.0mm 649 W/m2
14:23 71.1 °F /  21.7 °C 53.6 °F /  12 °C 30.1in /  1019.0hPa West 6mph /  9.7km/h 12mph /  19.3km/h 54% 0in /  0.0mm 649 W/m2
14:28 71.1 °F /  21.7 °C 53.6 °F /  12 °C 30.1in /  1019.0hPa WNW 2.9mph /  4.7km/h 6mph /  9.7km/h 54% 0in /  0.0mm 643 W/m2
14:33 71.2 °F /  21.8 °C 53.8 °F /  12.1 °C 30.1in /  1019.0hPa West 4mph /  6.4km/h 12mph /  19.3km/h 54% 0in /  0.0mm 640 W/m2
14:38 71.2 °F /  21.8 °C 53.2 °F /  11.8 °C 30.1in /  1019.0hPa WNW 0.9mph /  1.4km/h 6mph /  9.7km/h 53% 0in /  0.0mm 635 W/m2
14:43 71.8 °F /  22.1 °C 53.8 °F /  12.1 °C 30.1in /  1019.0hPa NW 2.9mph /  4.7km/h 10mph /  16.1km/h 53% 0in /  0.0mm 629 W/m2
14:48 71.8 °F /  22.1 °C 54.3 °F /  12.4 °C 30.1in /  1019.0hPa WNW 2.9mph /  4.7km/h 7mph /  11.3km/h 54% 0in /  0.0mm 621 W/m2
14:53 72 °F /  22.2 °C 54 °F /  12.2 °C 30.1in /  1019.0hPa WNW 4mph /  6.4km/h 10mph /  16.1km/h 53% 0in /  0.0mm 615 W/m2
14:58 71.8 °F /  22.1 °C 54.3 °F /  12.4 °C 30.1in /  1019.0hPa West 2.9mph /  4.7km/h 8mph /  12.9km/h 54% 0in /  0.0mm 608 W/m2
15:03 72 °F /  22.2 °C 54.9 °F /  12.7 °C 30.1in /  1019.0hPa East 0.9mph /  1.4km/h 6mph /  9.7km/h 55% 0in /  0.0mm 603 W/m2
15:08 72.1 °F /  22.3 °C 55 °F /  12.8 °C 30.1in /  1019.0hPa NW 2.9mph /  4.7km/h 4mph /  6.4km/h 55% 0in /  0.0mm 596 W/m2
15:13 72.3 °F /  22.4 °C 54.7 °F /  12.6 °C 30.1in /  1019.0hPa NW 2mph /  3.2km/h 4mph /  6.4km/h 54% 0in /  0.0mm 591 W/m2
15:18 72.5 °F /  22.5 °C 54.9 °F /  12.7 °C 30.1in /  1019.0hPa WSW 2.9mph /  4.7km/h 8mph /  12.9km/h 54% 0in /  0.0mm 584 W/m2
15:23 72.3 °F /  22.4 °C 54.7 °F /  12.6 °C 30.1in /  1018.6hPa NNW 4mph /  6.4km/h 7mph /  11.3km/h 54% 0in /  0.0mm 578 W/m2
15:28 72.5 °F /  22.5 °C 54 °F /  12.2 °C 30.1in /  1018.6hPa West 4mph /  6.4km/h 7mph /  11.3km/h 52% 0in /  0.0mm 571 W/m2
15:33 72.9 °F /  22.7 °C 54.1 °F /  12.3 °C 30.1in /  1018.6hPa SSW 2mph /  3.2km/h 4mph /  6.4km/h 52% 0in /  0.0mm 559 W/m2
15:38 72.7 °F /  22.6 °C 54 °F /  12.2 °C 30.1in /  1018.6hPa WNW 6.9mph /  11.1km/h 9mph /  14.5km/h 52% 0in /  0.0mm 559 W/m2
15:43 72.7 °F /  22.6 °C 55 °F /  12.8 °C 30.1in /  1018.6hPa WNW 4mph /  6.4km/h 4mph /  6.4km/h 54% 0in /  0.0mm 548 W/m2
15:48 72.9 °F /  22.7 °C 55.2 °F /  12.9 °C 30.1in /  1018.6hPa SW 6mph /  9.7km/h 6mph /  9.7km/h 54% 0in /  0.0mm 541 W/m2
15:53 72.9 °F /  22.7 °C 54.7 °F /  12.6 °C 30.1in /  1018.6hPa West 6mph /  9.7km/h 9mph /  14.5km/h 53% 0in /  0.0mm 533 W/m2
15:58 72.7 °F /  22.6 °C 55 °F /  12.8 °C 30.1in /  1018.3hPa WNW 4.9mph /  7.9km/h 8mph /  12.9km/h 54% 0in /  0.0mm 519 W/m2
16:03 72.7 °F /  22.6 °C 55 °F /  12.8 °C 30.1in /  1018.3hPa WSW 4.9mph /  7.9km/h 9mph /  14.5km/h 54% 0in /  0.0mm 512 W/m2
16:08 72.5 °F /  22.5 °C 54.9 °F /  12.7 °C 30.1in /  1018.3hPa WNW 2mph /  3.2km/h 4mph /  6.4km/h 54% 0in /  0.0mm 503 W/m2
16:13 72.7 °F /  22.6 °C 54.5 °F /  12.5 °C 30.1in /  1018.3hPa NW 8.1mph /  13km/h 9mph /  14.5km/h 53% 0in /  0.0mm 496 W/m2
16:18 72.3 °F /  22.4 °C 54.7 °F /  12.6 °C 30.1in /  1018.3hPa WNW 6.9mph /  11.1km/h 9mph /  14.5km/h 54% 0in /  0.0mm 485 W/m2
16:23 72 °F /  22.2 °C 54 °F /  12.2 °C 30.1in /  1018.3hPa West 6mph /  9.7km/h 8mph /  12.9km/h 53% 0in /  0.0mm 475 W/m2
16:28 72 °F /  22.2 °C 54.3 °F /  12.4 °C 30.1in /  1018.3hPa NW 6.9mph /  11.1km/h 7mph /  11.3km/h 54% 0in /  0.0mm 462 W/m2
16:33 72 °F /  22.2 °C 54.3 °F /  12.4 °C 30.1in /  1018.3hPa West 6mph /  9.7km/h 9mph /  14.5km/h 54% 0in /  0.0mm 448 W/m2
16:38 71.8 °F /  22.1 °C 53.8 °F /  12.1 °C 30.1in /  1018.3hPa WNW 11mph /  17.7km/h 11mph /  17.7km/h 53% 0in /  0.0mm 425 W/m2
16:43 71.8 °F /  22.1 °C 54.3 °F /  12.4 °C 30.1in /  1018.0hPa West 6mph /  9.7km/h 10mph /  16.1km/h 54% 0in /  0.0mm 376 W/m2
16:48 71.8 °F /  22.1 °C 53.8 °F /  12.1 °C 30.1in /  1018.0hPa WNW 8.1mph /  13km/h 10mph /  16.1km/h 53% 0in /  0.0mm 380 W/m2
16:53 71.4 °F /  21.9 °C 53.4 °F /  11.9 °C 30.1in /  1018.0hPa WNW 6.9mph /  11.1km/h 8mph /  12.9km/h 53% 0in /  0.0mm 399 W/m2
16:58 71.4 °F /  21.9 °C 53.4 °F /  11.9 °C 30.1in /  1018.0hPa West 10.1mph /  16.3km/h 10mph /  16.1km/h 53% 0in /  0.0mm 388 W/m2
17:03 71.2 °F /  21.8 °C 53.2 °F /  11.8 °C 30.1in /  1018.0hPa West 4mph /  6.4km/h 10mph /  16.1km/h 53% 0in /  0.0mm 376 W/m2
17:08 71.2 °F /  21.8 °C 53.2 °F /  11.8 °C 30.1in /  1018.0hPa South 4.9mph /  7.9km/h 9mph /  14.5km/h 53% 0in /  0.0mm 362 W/m2
17:13 71.1 °F /  21.7 °C 53.6 °F /  12 °C 30.1in /  1018.0hPa NNW 4mph /  6.4km/h 9mph /  14.5km/h 54% 0in /  0.0mm 350 W/m2
17:18 71.1 °F /  21.7 °C 53.6 °F /  12 °C 30.1in /  1018.0hPa West 2mph /  3.2km/h 6mph /  9.7km/h 54% 0in /  0.0mm 334 W/m2
17:23 71.1 °F /  21.7 °C 53.1 °F /  11.7 °C 30.1in /  1018.0hPa SW 4mph /  6.4km/h 10mph /  16.1km/h 53% 0in /  0.0mm 323 W/m2
17:28 71.1 °F /  21.7 °C 53.6 °F /  12 °C 30.1in /  1018.0hPa West 4mph /  6.4km/h 8mph /  12.9km/h 54% 0in /  0.0mm 311 W/m2
17:33 70.9 °F /  21.6 °C 53.4 °F /  11.9 °C 30.1in /  1017.6hPa SSW 6mph /  9.7km/h 8mph /  12.9km/h 54% 0in /  0.0mm 288 W/m2
17:38 70.9 °F /  21.6 °C 54 °F /  12.2 °C 30.1in /  1017.6hPa SW 4mph /  6.4km/h 7mph /  11.3km/h 55% 0in /  0.0mm 279 W/m2
17:43 70.9 °F /  21.6 °C 54 °F /  12.2 °C 30.1in /  1017.6hPa West 2.9mph /  4.7km/h 6mph /  9.7km/h 55% 0in /  0.0mm 271 W/m2
17:48 70.9 °F /  21.6 °C 54 °F /  12.2 °C 30.1in /  1017.6hPa West 4mph /  6.4km/h 8mph /  12.9km/h 55% 0in /  0.0mm 257 W/m2
17:53 70.9 °F /  21.6 °C 54.3 °F /  12.4 °C 30.1in /  1017.6hPa West 4mph /  6.4km/h 5mph /  8km/h 56% 0in /  0.0mm 243 W/m2
17:58 70.5 °F /  21.4 °C 54.1 °F /  12.3 °C 30.1in /  1017.6hPa WSW 8.1mph /  13km/h 9mph /  14.5km/h 56% 0in /  0.0mm 229 W/m2
18:03 70.3 °F /  21.3 °C 54.3 °F /  12.4 °C 30.1in /  1017.6hPa West 2.9mph /  4.7km/h 4mph /  6.4km/h 57% 0in /  0.0mm 132 W/m2
18:08 70 °F /  21.1 °C 54.5 °F /  12.5 °C 30.1in /  1017.6hPa WSW 9mph /  14.5km/h 9mph /  14.5km/h 58% 0in /  0.0mm 162 W/m2
18:13 69.8 °F /  21 °C 53.4 °F /  11.9 °C 30.1in /  1017.6hPa West 2.9mph /  4.7km/h 7mph /  11.3km/h 56% 0in /  0.0mm 185 W/m2
18:18 69.6 °F /  20.9 °C 53.2 °F /  11.8 °C 30.1in /  1017.6hPa West 4mph /  6.4km/h 6mph /  9.7km/h 56% 0in /  0.0mm 169 W/m2
18:23 69.3 °F /  20.7 °C 52.9 °F /  11.6 °C 30.1in /  1017.6hPa West 2mph /  3.2km/h 6mph /  9.7km/h 56% 0in /  0.0mm 155 W/m2
18:28 68.9 °F /  20.5 °C 53.1 °F /  11.7 °C 30.1in /  1017.6hPa WSW 2.9mph /  4.7km/h 7mph /  11.3km/h 57% 0in /  0.0mm 32 W/m2
18:33 68.4 °F /  20.2 °C 53.1 °F /  11.7 °C 30.1in /  1018.0hPa WNW 2.9mph /  4.7km/h 3mph /  4.8km/h 58% 0in /  0.0mm 30 W/m2
18:38 67.8 °F /  19.9 °C 52.9 °F /  11.6 °C 30.1in /  1018.0hPa West 2.9mph /  4.7km/h 3mph /  4.8km/h 59% 0in /  0.0mm 26 W/m2
18:43 67.3 °F /  19.6 °C 52.9 °F /  11.6 °C 30.1in /  1018.0hPa WSW 4mph /  6.4km/h 4mph /  6.4km/h 60% 0in /  0.0mm 25 W/m2
18:48 66.7 °F /  19.3 °C 52.9 °F /  11.6 °C 30.1in /  1018.0hPa West 2.9mph /  4.7km/h 6mph /  9.7km/h 61% 0in /  0.0mm 25 W/m2
18:53 66.6 °F /  19.2 °C 52.2 °F /  11.2 °C 30.1in /  1018.0hPa WSW 4.9mph /  7.9km/h 9mph /  14.5km/h 60% 0in /  0.0mm 23 W/m2
18:58 66.4 °F /  19.1 °C 52.5 °F /  11.4 °C 30.1in /  1018.0hPa WSW 0.9mph /  1.4km/h 4mph /  6.4km/h 61% 0in /  0.0mm 21 W/m2
19:03 66 °F /  18.9 °C 52.2 °F /  11.2 °C 30.1in /  1018.0hPa West 4mph /  6.4km/h 7mph /  11.3km/h 61% 0in /  0.0mm 21 W/m2
19:08 65.7 °F /  18.7 °C 52.3 °F /  11.3 °C 30.1in /  1018.0hPa WNW 2.9mph /  4.7km/h 9mph /  14.5km/h 62% 0in /  0.0mm 19 W/m2
19:13 65.5 °F /  18.6 °C 52.2 °F /  11.2 °C 30.1in /  1018.0hPa West 0.9mph /  1.4km/h 6mph /  9.7km/h 62% 0in /  0.0mm 16 W/m2
19:18 65.1 °F /  18.4 °C 52.2 °F /  11.2 °C 30.1in /  1018.0hPa WNW 2.9mph /  4.7km/h 5mph /  8km/h 63% 0in /  0.0mm 12 W/m2
19:23 64.9 °F /  18.3 °C 52 °F /  11.1 °C 30.1in /  1018.0hPa WSW 4mph /  6.4km/h 4mph /  6.4km/h 63% 0in /  0.0mm 9 W/m2
19:28 64.8 °F /  18.2 °C 52.3 °F /  11.3 °C 30.1in /  1018.0hPa West 4mph /  6.4km/h 4mph /  6.4km/h 64% 0in /  0.0mm 5 W/m2
19:33 64.4 °F /  18 °C 52.3 °F /  11.3 °C 30.1in /  1018.3hPa WSW 2mph /  3.2km/h 8mph /  12.9km/h 65% 0in /  0.0mm 0 W/m2
19:38 64.2 °F /  17.9 °C 52.2 °F /  11.2 °C 30.1in /  1018.0hPa NW 2mph /  3.2km/h 5mph /  8km/h 65% 0in /  0.0mm 5 W/m2
19:43 63.9 °F /  17.7 °C 52.3 °F /  11.3 °C 30.1in /  1018.0hPa WNW 2mph /  3.2km/h 8mph /  12.9km/h 66% 0in /  0.0mm 0 W/m2
19:49 63.7 °F /  17.6 °C 52.5 °F /  11.4 °C 30.1in /  1018.3hPa West 2mph /  3.2km/h 4mph /  6.4km/h 67% 0in /  0.0mm 0 W/m2
19:54 63.7 °F /  17.6 °C 52.5 °F /  11.4 °C 30.1in /  1018.3hPa West 2.9mph /  4.7km/h 4mph /  6.4km/h 67% 0in /  0.0mm 0 W/m2
Juneau County Weather
Compliments of Weather Underground - 2 mb